Highlands Ranch, CO (80130)

1:03 AM MDT on October 22, 2014 (GMT -0600)
Grant's PWS | Change Station
CLOSE
Current Station
Personal Weather Station
Location: Castle Rock, CO
Elevation: 6109 ft
Nearby Weather Stations

Elev 6109 ft 39.41 °N, 104.92 °W | Updated 2 seconds ago

Overcast
Overcast
56.0 °F
Feels Like 56.0 °F
N
0.0
Wind Variable Wind from WSW
Gusts 1.1 mph

Today
High -- | Low -- °F
--% Chance of Precip.
Yesterday
High -- | Low -- °F
Precip. -- in
7:17 AM 6:10 PM
Waning Crescent, 3% visible
Pressure 29.84 in
Visibility 10.0 miles
Clouds Mostly Cloudy 7500 ft
Overcast 8500 ft
Dew Point 38 °F
Humidity 51%
Rainfall 0.00 in
Snow Depth Not available.
UV 0 out of 12
Pollen 3.00 out of 12
Ozone Good
PM2.5 Good
Flu Activity Sporadic
METAR KAPA 220653Z 10009KT 10SM -RA BKN075 OVC085 12/06 A3000 RMK AO2 RAB14E24B50 SLP103 P0000 T01220056 402330083

More Conditions Fewer Conditions

Pressure 29.84 in
Visibility 10.0 miles
Clouds Mostly Cloudy 7500 ft
Overcast 8500 ft
Dew Point 38 °F
Humidity 51%
Rainfall 0.00 in
Snow Depth Not available.
UV 0 out of 12
Pollen 3.00 out of 12
Ozone Good
PM2.5 Good
Flu Activity Sporadic
METAR KAPA 220653Z 10009KT 10SM -RA BKN075 OVC085 12/06 A3000 RMK AO2 RAB14E24B50 SLP103 P0000 T01220056 402330083

More Conditions Fewer Conditions

10-Day Weather Forecast

Almanac

Astronomy

Oct. 22, 2014 Rise Set
Actual Time 7:17 AM MDT 6:10 PM MDT
Civil Twilight 6:49 AM MDT 6:38 PM MDT
Nautical Twilight 6:18 AM MDT 7:09 PM MDT
Astronomical Twilight 5:47 AM MDT 7:40 PM MDT
Moon 6:01 AM MDT 5:38 PM MDT
Length of Visible Light 11h 48m
Length of Day
10h 53m
Tomorrow will be 2m 25s shorter.
Waning Crescent, 3% of the Moon is Illuminated
Today
Waning Crescent
Oct 23
New
Oct 30
First Quarter
Nov 6
Full
Nov 14
Last Quarter

Community

WunderPhotos

Upload Photos

1,763,884 photos uploaded!

Nearby

Air Quality

  Air Quality AQ Index Pollutant
Yesterday Good
OZONE
Yesterday Good
PM10
Current Good
OZONE
Current Good
PM2.5
Tuesday Good
OZONE
Tuesday Good
PM2.5
Wednesday Good
OZONE
Wednesday Good
PM2.5

Snow Depth

Station Depth Elevation
Glen Cove 1 in 11460 ft
Echo Lake 0 in 10600 ft
Jackwhacker Gulch 1 in 10960 ft
Lake Eldora 0 in 9700 ft
Berthoud Summit 0 in 11300 ft

Earthquake Activity

City Distance Mag. Time & Date
No recent earthquake activity has been reported nearby.
Minimum magnitude displayed is 2.5.

Coastal Water Temperatures

Place Temperature
No Stations Reporting

Nearby Weather Stations